Time;durP1;ratioP1;P1;durP2;ratioP2;P2;SDS_P1;SDS_P2;PMS_P1;PMS_P2;Temp;Humidity;BMP_temperature;BMP_pressure;BME280_temperature;BME280_humidity;BME280_pressure;Samples;Min_cycle;Max_cycle;Signal;HPM_P1;HPM_P2
2023/07/06 00:01:26;;;;;;;1.27;1.00;;;23.10;49.40;;;;;;5007759;28;21048;-49
2023/07/06 00:03:56;;;;;;;1.73;1.30;;;23.10;49.40;;;;;;4998447;28;20989;-49
2023/07/06 00:06:25;;;;;;;2.33;1.37;;;23.20;49.60;;;;;;5004430;28;20483;-49
2023/07/06 00:08:54;;;;;;;1.70;1.33;;;23.10;49.40;;;;;;4988102;28;20532;-50
2023/07/06 00:11:22;;;;;;;1.40;1.30;;;23.10;49.40;;;;;;4986199;28;21373;-49
2023/07/06 00:13:51;;;;;;;1.80;1.40;;;23.10;49.50;;;;;;4991207;28;20517;-50
2023/07/06 00:16:22;;;;;;;1.30;1.10;;;23.10;49.40;;;;;;5000360;28;20843;-49
2023/07/06 00:18:50;;;;;;;4.63;1.63;;;23.20;49.60;;;;;;5003381;28;20545;-49
2023/07/06 00:21:19;;;;;;;1.30;1.20;;;23.10;49.40;;;;;;4991490;28;20471;-49
2023/07/06 00:23:49;;;;;;;1.83;1.10;;;23.10;49.40;;;;;;5001100;28;20465;-49
2023/07/06 00:26:20;;;;;;;2.70;1.50;;;23.10;49.50;;;;;;5003480;28;20515;-50
2023/07/06 00:28:49;;;;;;;1.30;1.20;;;23.10;49.40;;;;;;5013089;28;20429;-49
2023/07/06 00:31:31;;;;;;;1.70;1.27;;;23.10;49.50;;;;;;4991489;28;20496;-49
2023/07/06 00:34:04;;;;;;;1.23;0.90;;;23.10;50.70;;;;;;5007633;28;20452;-49
2023/07/06 00:36:35;;;;;;;2.40;1.30;;;23.10;49.50;;;;;;4993003;28;20985;-49
2023/07/06 00:39:04;;;;;;;1.67;1.30;;;23.10;49.50;;;;;;4995547;28;20830;-50
2023/07/06 00:41:34;;;;;;;2.20;1.47;;;23.10;49.50;;;;;;5005187;28;20460;-49
2023/07/06 00:44:04;;;;;;;1.50;1.40;;;23.00;49.40;;;;;;4993437;28;20471;-50
2023/07/06 00:46:39;;;;;;;2.00;1.13;;;23.10;49.50;;;;;;4983791;28;20462;-49
2023/07/06 00:49:15;;;;;;;1.07;0.90;;;23.10;49.50;;;;;;5007160;28;21037;-49
2023/07/06 00:51:44;;;;;;;3.27;1.57;;;23.10;49.50;;;;;;5007689;28;20824;-50
2023/07/06 00:54:16;;;;;;;2.30;1.40;;;23.10;49.40;;;;;;4987466;28;20479;-49
2023/07/06 00:56:52;;;;;;;2.13;1.23;;;23.10;49.50;;;;;;5007289;28;20452;-47
2023/07/06 00:59:26;;;;;;;2.10;1.50;;;23.10;49.50;;;;;;5007066;28;20471;-50
2023/07/06 01:01:55;;;;;;;2.20;1.30;;;23.10;49.50;;;;;;4991596;28;21373;-49
2023/07/06 01:04:27;;;;;;;3.13;1.43;;;23.10;49.50;;;;;;5006381;28;20503;-49
2023/07/06 01:06:56;;;;;;;1.67;1.10;;;23.10;49.50;;;;;;4991078;28;21060;-49
2023/07/06 01:09:27;;;;;;;1.83;1.20;;;23.10;49.50;;;;;;5004535;28;20433;-49
2023/07/06 01:11:56;;;;;;;1.50;1.00;;;23.10;49.50;;;;;;4996524;28;21172;-50
2023/07/06 01:14:26;;;;;;;1.13;0.80;;;23.10;49.50;;;;;;4991382;28;20436;-50
2023/07/06 01:17:05;;;;;;;1.27;1.17;;;23.00;50.60;;;;;;4990259;28;20980;-50
2023/07/06 01:19:59;;;;;;;1.20;1.10;;;23.00;49.40;;;;;;4988376;28;20456;-49
2023/07/06 01:22:48;;;;;;;1.70;1.10;;;23.00;49.40;;;;;;4994423;28;20496;-48
2023/07/06 01:25:29;;;;;;;1.40;1.10;;;23.00;49.40;;;;;;5013194;28;20468;-49
2023/07/06 01:28:16;;;;;;;1.60;1.50;;;23.00;49.50;;;;;;4993816;28;20443;-50
2023/07/06 01:31:16;;;;;;;1.40;1.20;;;23.00;49.50;;;;;;4985554;28;20563;-50
2023/07/06 01:33:49;;;;;;;1.50;1.20;;;23.00;49.50;;;;;;5010138;28;20445;-48
2023/07/06 01:36:23;;;;;;;1.30;0.90;;;23.00;49.60;;;;;;4991642;28;20588;-49
2023/07/06 01:39:12;;;;;;;1.40;1.00;;;23.00;49.60;;;;;;5002927;28;20993;-49
2023/07/06 01:41:41;;;;;;;2.00;1.33;;;23.00;49.50;;;;;;5010603;28;20460;-49
2023/07/06 01:44:12;;;;;;;1.30;0.90;;;23.00;49.50;;;;;;5007200;28;20883;-49
2023/07/06 01:46:47;;;;;;;1.80;1.30;;;23.00;49.50;;;;;;5006651;28;20459;-49
2023/07/06 01:49:17;;;;;;;1.47;0.97;;;23.00;49.50;;;;;;5010064;28;20845;-50
2023/07/06 01:51:56;;;;;;;1.47;0.90;;;23.00;49.50;;;;;;5011875;28;20444;-50
2023/07/06 01:54:35;;;;;;;1.30;1.13;;;22.90;49.40;;;;;;5005869;28;20495;-49
2023/07/06 01:57:09;;;;;;;1.30;1.13;;;22.90;49.40;;;;;;5005810;28;20531;-50
2023/07/06 01:59:40;;;;;;;1.57;1.00;;;22.90;49.40;;;;;;5005843;28;20475;-48
2023/07/06 02:02:11;;;;;;;2.00;1.10;;;22.90;49.50;;;;;;5007328;28;20949;-50
2023/07/06 02:04:43;;;;;;;1.83;1.50;;;22.90;49.40;;;;;;5008375;28;20449;-50
2023/07/06 02:07:13;;;;;;;1.47;1.07;;;22.90;49.50;;;;;;5005110;28;20536;-50
2023/07/06 02:09:47;;;;;;;1.57;1.13;;;22.90;49.40;;;;;;5008087;28;20491;-48
2023/07/06 02:12:15;;;;;;;1.40;1.03;;;22.90;49.40;;;;;;5011250;28;20437;-50
2023/07/06 02:14:44;;;;;;;1.60;1.20;;;22.90;49.40;;;;;;4996122;28;20476;-51
2023/07/06 02:17:15;;;;;;;1.50;1.10;;;22.90;49.50;;;;;;4986768;28;20459;-49
2023/07/06 02:19:44;;;;;;;1.20;0.90;;;22.90;49.40;;;;;;5007482;28;20550;-49
2023/07/06 02:22:12;;;;;;;1.33;0.90;;;22.90;49.40;;;;;;4991021;28;20554;-50
2023/07/06 02:24:41;;;;;;;2.10;0.93;;;22.90;49.40;;;;;;5005577;28;20511;-49
2023/07/06 02:27:10;;;;;;;1.20;1.10;;;22.90;49.40;;;;;;5005376;28;20787;-50
2023/07/06 02:29:41;;;;;;;2.00;1.10;;;22.90;49.40;;;;;;4990905;28;20989;-49
2023/07/06 02:32:10;;;;;;;1.40;1.27;;;22.90;49.40;;;;;;4985344;28;20973;-49
2023/07/06 02:34:40;;;;;;;1.80;1.20;;;22.90;49.30;;;;;;5009132;28;20478;-49
2023/07/06 02:37:09;;;;;;;1.40;1.10;;;22.90;49.30;;;;;;5008509;28;20448;-50
2023/07/06 02:39:38;;;;;;;2.80;1.63;;;22.80;49.40;;;;;;5003767;28;20492;-49
2023/07/06 02:42:07;;;;;;;1.80;1.00;;;22.80;49.40;;;;;;4995702;28;20442;-51
2023/07/06 02:44:37;;;;;;;1.83;1.10;;;22.80;49.30;;;;;;5004167;28;20472;-49
2023/07/06 02:47:06;;;;;;;1.70;1.10;;;22.80;49.30;;;;;;5004436;28;20444;-49
2023/07/06 02:49:34;;;;;;;1.50;1.23;;;22.80;49.40;;;;;;4989643;28;20532;-51
2023/07/06 02:52:05;;;;;;;1.20;1.10;;;22.80;49.40;;;;;;5004500;28;20543;-49
2023/07/06 02:54:34;;;;;;;2.00;0.90;;;22.80;49.40;;;;;;4992186;28;20510;-50
2023/07/06 02:57:03;;;;;;;1.50;1.10;;;22.80;49.40;;;;;;5002589;28;20457;-50
2023/07/06 02:59:32;;;;;;;1.00;0.80;;;22.80;49.30;;;;;;5001403;28;21012;-48
2023/07/06 03:02:00;;;;;;;1.40;1.03;;;22.80;49.30;;;;;;5005994;28;20447;-50
2023/07/06 03:04:29;;;;;;;1.90;1.47;;;22.80;49.40;;;;;;5005900;28;20491;-49
2023/07/06 03:06:57;;;;;;;1.70;1.30;;;22.80;49.40;;;;;;5002296;28;20872;-49
2023/07/06 03:09:28;;;;;;;1.90;1.03;;;22.80;49.30;;;;;;5004692;28;20436;-49
2023/07/06 03:11:56;;;;;;;1.10;1.00;;;22.80;49.40;;;;;;4995599;28;20931;-51
2023/07/06 03:14:25;;;;;;;2.03;1.07;;;22.80;49.20;;;;;;4987570;28;20429;-51
2023/07/06 03:16:54;;;;;;;1.33;0.90;;;22.80;49.30;;;;;;4989498;28;20448;-49
2023/07/06 03:19:23;;;;;;;2.07;1.03;;;22.80;49.30;;;;;;4985331;28;20464;-48
2023/07/06 03:21:52;;;;;;;2.20;1.00;;;22.80;49.40;;;;;;4994330;28;20524;-49
2023/07/06 03:24:20;;;;;;;1.00;0.90;;;22.70;49.30;;;;;;4986370;28;20873;-50
2023/07/06 03:26:52;;;;;;;2.37;1.00;;;22.70;49.30;;;;;;5005862;28;20429;-50
2023/07/06 03:29:21;;;;;;;1.97;1.17;;;22.70;49.30;;;;;;4994888;28;20532;-48
2023/07/06 03:31:50;;;;;;;1.20;1.07;;;22.70;49.40;;;;;;4989331;28;20453;-50
2023/07/06 03:34:19;;;;;;;1.40;0.80;;;22.70;49.40;;;;;;4991598;28;20535;-50
2023/07/06 03:36:47;;;;;;;1.20;0.90;;;22.70;49.30;;;;;;5005992;28;20826;-48
2023/07/06 03:39:16;;;;;;;1.30;0.87;;;22.70;49.30;;;;;;4989466;28;20460;-49
2023/07/06 03:41:45;;;;;;;1.47;0.83;;;22.70;49.40;;;;;;4994012;28;20449;-52
2023/07/06 03:44:15;;;;;;;1.97;1.00;;;22.70;49.40;;;;;;5004243;28;20452;-48
2023/07/06 03:46:43;;;;;;;1.30;1.00;;;22.70;49.40;;;;;;5009131;28;21017;-49
2023/07/06 03:49:13;;;;;;;1.43;1.07;;;22.70;49.40;;;;;;5005245;28;20436;-50
2023/07/06 03:51:45;;;;;;;2.23;1.30;;;22.70;49.40;;;;;;5004504;28;20550;-48
2023/07/06 03:54:14;;;;;;;1.57;1.00;;;22.70;49.40;;;;;;4984785;28;20451;-50
2023/07/06 03:56:43;;;;;;;1.70;0.90;;;22.70;49.30;;;;;;5004723;28;20516;-48
2023/07/06 03:59:11;;;;;;;1.43;0.90;;;22.70;49.40;;;;;;4993445;28;20446;-50
2023/07/06 04:01:42;;;;;;;2.20;1.37;;;22.70;49.30;;;;;;5006607;28;20849;-49
2023/07/06 04:04:10;;;;;;;1.33;1.07;;;22.70;49.20;;;;;;4990937;28;20449;-49
2023/07/06 04:06:41;;;;;;;2.00;1.03;;;22.60;49.20;;;;;;5007270;28;20479;-49
2023/07/06 04:09:10;;;;;;;1.50;1.20;;;22.60;49.30;;;;;;4986816;28;20474;-48
2023/07/06 04:11:39;;;;;;;1.43;0.93;;;22.60;49.10;;;;;;5008130;28;20985;-50
2023/07/06 04:14:08;;;;;;;1.20;1.00;;;22.60;49.30;;;;;;5002763;28;20485;-49
2023/07/06 04:16:38;;;;;;;1.83;1.27;;;22.60;49.10;;;;;;4999763;28;20436;-49
2023/07/06 04:19:10;;;;;;;1.10;0.97;;;22.60;49.20;;;;;;4989670;28;20431;-48
2023/07/06 04:21:39;;;;;;;1.40;0.93;;;22.60;49.20;;;;;;5010175;28;21032;-49
2023/07/06 04:24:08;;;;;;;1.50;1.10;;;22.60;49.20;;;;;;5003747;28;20876;-50
2023/07/06 04:26:41;;;;;;;2.10;1.23;;;22.60;49.20;;;;;;4992036;28;20445;-49
2023/07/06 04:29:10;;;;;;;1.63;1.10;;;22.60;49.20;;;;;;5005992;28;20427;-49
2023/07/06 04:31:39;;;;;;;1.70;1.27;;;22.60;49.20;;;;;;5003082;28;20482;-49
2023/07/06 04:34:09;;;;;;;3.30;1.40;;;22.60;49.30;;;;;;5002910;28;20441;-50
2023/07/06 04:36:39;;;;;;;2.03;1.20;;;22.60;49.30;;;;;;4992497;28;20522;-47
2023/07/06 04:39:08;;;;;;;1.83;1.10;;;22.60;49.20;;;;;;4995871;28;20495;-48
2023/07/06 04:41:38;;;;;;;1.40;1.00;;;22.60;49.30;;;;;;4990447;28;20487;-49
2023/07/06 04:44:07;;;;;;;1.87;0.90;;;22.60;49.30;;;;;;5005434;28;20437;-49
2023/07/06 04:46:37;;;;;;;1.63;1.30;;;22.50;49.30;;;;;;5002249;28;20976;-49
2023/07/06 04:49:06;;;;;;;1.50;0.80;;;22.50;49.40;;;;;;5007369;28;20431;-49
2023/07/06 04:51:36;;;;;;;1.20;1.10;;;22.50;49.10;;;;;;4990506;28;20558;-49
2023/07/06 04:54:05;;;;;;;2.43;1.00;;;22.50;49.20;;;;;;4985026;28;20515;-48
2023/07/06 04:56:37;;;;;;;1.60;1.20;;;22.50;49.20;;;;;;5006559;28;20485;-48
2023/07/06 04:59:05;;;;;;;1.90;1.00;;;22.50;49.20;;;;;;5012336;28;20806;-48
2023/07/06 05:01:34;;;;;;;1.60;1.10;;;22.50;49.20;;;;;;4996652;28;21008;-48
2023/07/06 05:04:02;;;;;;;1.47;1.13;;;22.50;49.20;;;;;;5006203;28;20448;-50
2023/07/06 05:06:31;;;;;;;2.00;0.90;;;22.50;49.20;;;;;;4995873;28;20456;-47
2023/07/06 05:09:04;;;;;;;2.33;1.13;;;22.50;49.20;;;;;;5008184;28;20464;-48
2023/07/06 05:11:33;;;;;;;1.10;0.90;;;22.40;49.10;;;;;;5008425;28;20467;-48
2023/07/06 05:14:01;;;;;;;1.30;1.10;;;22.40;49.10;;;;;;5008102;28;20558;-49
2023/07/06 05:16:30;;;;;;;1.63;0.97;;;22.50;49.20;;;;;;4989105;28;20876;-49
2023/07/06 05:18:59;;;;;;;1.20;0.80;;;22.50;49.30;;;;;;5009853;28;20444;-47
2023/07/06 05:21:28;;;;;;;2.50;0.83;;;22.50;49.30;;;;;;5005928;28;21019;-49
2023/07/06 05:23:57;;;;;;;1.90;0.93;;;22.40;49.20;;;;;;5004494;28;20443;-48
2023/07/06 05:26:27;;;;;;;1.73;1.00;;;22.40;49.20;;;;;;5002233;28;20831;-49
2023/07/06 05:28:55;;;;;;;1.33;0.87;;;22.40;49.00;;;;;;5010989;28;20886;-48
2023/07/06 05:31:24;;;;;;;1.50;1.30;;;22.40;48.90;;;;;;4994986;28;20548;-49
2023/07/06 05:33:53;;;;;;;1.40;1.00;;;22.40;49.10;;;;;;4995009;28;20458;-48
2023/07/06 05:36:21;;;;;;;1.30;0.90;;;22.40;49.20;;;;;;5007069;28;20466;-47
2023/07/06 05:38:50;;;;;;;1.80;1.40;;;22.40;49.00;;;;;;4993595;28;20526;-47
2023/07/06 05:41:19;;;;;;;1.53;1.30;;;22.40;49.10;;;;;;5008243;28;20475;-47
2023/07/06 05:43:49;;;;;;;1.93;1.43;;;22.40;49.10;;;;;;5006496;28;20440;-49
2023/07/06 05:46:17;;;;;;;1.47;1.10;;;22.40;49.00;;;;;;4988962;28;20483;-48
2023/07/06 05:48:46;;;;;;;1.73;1.00;;;22.40;48.70;;;;;;4993550;28;20443;-49
2023/07/06 05:51:14;;;;;;;2.57;1.30;;;22.40;48.70;;;;;;5012234;28;20507;-49
2023/07/06 05:53:43;;;;;;;2.07;1.10;;;22.40;48.80;;;;;;4987065;28;20828;-49
2023/07/06 05:56:13;;;;;;;1.80;1.00;;;22.40;48.90;;;;;;4988296;28;20513;-49
2023/07/06 05:58:41;;;;;;;1.40;0.97;;;22.40;48.90;;;;;;5007945;28;20451;-49
2023/07/06 06:01:11;;;;;;;2.60;1.43;;;22.40;48.80;;;;;;4990529;28;21075;-49
2023/07/06 06:03:40;;;;;;;2.07;1.10;;;22.40;48.60;;;;;;4990074;28;20431;-48
2023/07/06 06:06:10;;;;;;;1.77;0.90;;;22.40;48.70;;;;;;4994152;28;20459;-48
2023/07/06 06:08:39;;;;;;;1.30;1.20;;;22.40;48.40;;;;;;5005377;28;20443;-48
2023/07/06 06:11:08;;;;;;;1.07;0.93;;;22.40;48.50;;;;;;5008789;28;20468;-48
2023/07/06 06:13:36;;;;;;;1.40;1.10;;;22.40;48.70;;;;;;5003756;28;20446;-48
2023/07/06 06:16:06;;;;;;;1.47;1.37;;;22.40;48.60;;;;;;5004858;28;20486;-48
2023/07/06 06:18:39;;;;;;;1.70;1.17;;;22.40;48.60;;;;;;4991980;28;20816;-48
2023/07/06 06:21:11;;;;;;;2.00;1.10;;;22.40;48.70;;;;;;4991312;28;20566;-48
2023/07/06 06:23:40;;;;;;;1.60;1.20;;;22.40;48.40;;;;;;4992795;28;20439;-48
2023/07/06 06:26:10;;;;;;;2.70;1.30;;;22.40;48.70;;;;;;5008282;28;20477;-48
2023/07/06 06:28:39;;;;;;;1.50;1.13;;;22.40;48.60;;;;;;5009537;28;20450;-49
2023/07/06 06:31:12;;;;;;;1.53;1.10;;;22.40;48.60;;;;;;5006934;28;20838;-49
2023/07/06 06:33:44;;;;;;;2.20;1.10;;;22.30;48.60;;;;;;4987602;28;20455;-48
2023/07/06 06:36:13;;;;;;;1.53;1.37;;;22.40;48.70;;;;;;4993644;28;20970;-47
2023/07/06 06:38:42;;;;;;;1.70;1.10;;;22.30;48.40;;;;;;5003947;28;20995;-48
2023/07/06 06:41:11;;;;;;;1.37;0.83;;;22.30;48.30;;;;;;5007696;28;20490;-48
2023/07/06 06:43:40;;;;;;;1.93;0.83;;;22.30;48.60;;;;;;5009107;28;20442;-48
2023/07/06 06:46:10;;;;;;;1.70;1.37;;;22.30;48.40;;;;;;4988390;28;20933;-48
2023/07/06 06:48:39;;;;;;;1.30;0.90;;;22.30;48.50;;;;;;5006977;28;20431;-48
2023/07/06 06:51:12;;;;;;;2.20;1.20;;;22.30;48.60;;;;;;4985295;28;20500;-47
2023/07/06 06:53:40;;;;;;;1.27;1.07;;;22.30;48.60;;;;;;4998969;28;20456;-49
2023/07/06 06:56:10;;;;;;;1.90;1.13;;;22.30;48.30;;;;;;5000714;28;20484;-48
2023/07/06 06:58:38;;;;;;;1.43;1.17;;;22.30;48.30;;;;;;5007210;28;20846;-48
2023/07/06 07:01:09;;;;;;;1.50;1.23;;;22.30;48.60;;;;;;5009892;28;20467;-47
2023/07/06 07:03:38;;;;;;;1.90;1.57;;;22.30;48.40;;;;;;5001709;28;20506;-49
2023/07/06 07:06:12;;;;;;;1.90;1.10;;;22.30;48.20;;;;;;4987224;28;20526;-47
2023/07/06 07:08:43;;;;;;;3.07;1.20;;;22.30;48.30;;;;;;5000719;28;20454;-48
2023/07/06 07:11:12;;;;;;;1.97;1.47;;;22.30;48.30;;;;;;5003844;28;20902;-48
2023/07/06 07:13:52;;;;;;;1.57;1.20;;;22.30;48.30;;;;;;5007917;28;20944;-48
2023/07/06 07:16:21;;;;;;;1.50;1.03;;;22.30;48.10;;;;;;5000084;28;20488;-48
2023/07/06 07:18:51;;;;;;;1.27;0.83;;;22.30;48.40;;;;;;4993175;28;20825;-48
2023/07/06 07:21:21;;;;;;;1.30;0.73;;;22.30;48.50;;;;;;4988352;28;20972;-48
2023/07/06 07:23:50;;;;;;;1.73;1.00;;;22.30;48.50;;;;;;4984425;28;20987;-48
2023/07/06 07:26:22;;;;;;;1.23;1.00;;;22.30;48.60;;;;;;4992977;28;20892;-48
2023/07/06 07:28:51;;;;;;;1.47;1.10;;;22.30;48.60;;;;;;5009177;28;20473;-48
2023/07/06 07:31:22;;;;;;;1.40;0.80;;;22.30;48.70;;;;;;5006254;28;20493;-49
2023/07/06 07:33:51;;;;;;;2.17;1.43;;;22.30;48.80;;;;;;5004237;28;20863;-48
2023/07/06 07:36:22;;;;;;;1.40;1.00;;;22.30;48.80;;;;;;5000366;28;20478;-49
2023/07/06 07:38:53;;;;;;;2.17;1.00;;;22.30;48.80;;;;;;4985706;28;20562;-49
2023/07/06 07:41:22;;;;;;;1.50;1.10;;;22.30;48.80;;;;;;5005316;28;20900;-48
2023/07/06 07:43:51;;;;;;;3.93;1.43;;;22.30;48.90;;;;;;4987652;28;20451;-49
2023/07/06 07:46:22;;;;;;;2.50;1.37;;;22.50;46.80;;;;;;4983735;28;20488;-48
2023/07/06 07:48:53;;;;;;;2.73;1.70;;;22.40;45.80;;;;;;4999615;28;20447;-48
2023/07/06 07:51:26;;;;;;;2.37;1.20;;;22.30;46.40;;;;;;4987085;28;20490;-48
2023/07/06 07:53:56;;;;;;;1.93;1.20;;;22.30;46.70;;;;;;5001107;28;20451;-48
2023/07/06 07:56:27;;;;;;;2.10;1.13;;;22.20;46.90;;;;;;5000769;28;20529;-49
2023/07/06 07:58:55;;;;;;;1.57;1.07;;;22.20;47.10;;;;;;5007515;28;20769;-48
2023/07/06 08:01:26;;;;;;;1.77;1.00;;;22.20;47.30;;;;;;4996722;28;20506;-48
2023/07/06 08:03:57;;;;;;;1.43;1.07;;;22.20;47.30;;;;;;4990711;28;20482;-49
2023/07/06 08:06:27;;;;;;;2.03;1.50;;;22.20;47.50;;;;;;5010881;28;20542;-49
2023/07/06 08:08:56;;;;;;;1.40;1.10;;;22.30;47.60;;;;;;5002546;28;20478;-48
2023/07/06 08:11:26;;;;;;;1.67;1.03;;;22.20;47.60;;;;;;4986407;28;20507;-48
2023/07/06 08:13:56;;;;;;;2.60;0.87;;;22.20;47.70;;;;;;4993516;28;20450;-49
2023/07/06 08:16:25;;;;;;;2.50;1.13;;;22.20;47.80;;;;;;4995349;28;20916;-48
2023/07/06 08:18:57;;;;;;;1.70;1.40;;;22.20;47.80;;;;;;4990318;28;20442;-49
2023/07/06 08:21:47;;;;;;;1.50;1.10;;;22.20;47.80;;;;;;4990306;28;20461;-49
2023/07/06 08:24:37;;;;;;;1.60;1.03;;;22.20;48.00;;;;;;5002108;28;20959;-49
2023/07/06 08:27:06;;;;;;;2.27;1.30;;;22.20;47.80;;;;;;4986203;28;20457;-49
2023/07/06 08:29:35;;;;;;;1.10;0.80;;;22.30;48.00;;;;;;4991324;28;20543;-48
2023/07/06 08:32:04;;;;;;;1.80;0.90;;;22.20;48.00;;;;;;4991783;28;20540;-49
2023/07/06 08:34:35;;;;;;;1.43;0.90;;;22.20;48.00;;;;;;4990384;28;20446;-49
2023/07/06 08:37:05;;;;;;;1.67;0.97;;;22.20;48.10;;;;;;5007470;28;20453;-49
2023/07/06 08:39:34;;;;;;;2.00;0.97;;;22.20;48.00;;;;;;4991696;28;20464;-49
2023/07/06 08:42:09;;;;;;;1.50;0.90;;;22.20;48.00;;;;;;5010108;28;20441;-48
2023/07/06 08:44:38;;;;;;;1.40;0.93;;;22.20;47.90;;;;;;5008025;28;20493;-49
2023/07/06 08:47:07;;;;;;;2.27;1.30;;;22.20;48.00;;;;;;5004354;28;20538;-49
2023/07/06 08:49:38;;;;;;;1.60;1.27;;;22.30;48.10;;;;;;5001968;28;20553;-49
2023/07/06 08:52:12;;;;;;;1.90;1.03;;;22.20;47.90;;;;;;4987131;28;20435;-49
2023/07/06 08:54:41;;;;;;;1.13;0.90;;;22.20;47.80;;;;;;5001426;28;20505;-49
2023/07/06 08:57:15;;;;;;;2.17;1.23;;;22.20;47.80;;;;;;4988554;28;20522;-48
2023/07/06 08:59:46;;;;;;;1.10;1.00;;;22.20;47.90;;;;;;4990560;28;20468;-49
2023/07/06 09:02:18;;;;;;;1.47;1.20;;;22.20;47.90;;;;;;4991143;28;20505;-49
2023/07/06 09:04:49;;;;;;;1.23;0.93;;;22.20;47.80;;;;;;4989443;28;20528;-49
2023/07/06 09:07:24;;;;;;;1.83;1.40;;;22.20;47.80;;;;;;4987834;28;20932;-48
2023/07/06 09:09:54;;;;;;;1.70;1.07;;;22.20;47.70;;;;;;4989796;28;20911;-48
2023/07/06 09:12:33;;;;;;;2.07;1.13;;;22.20;47.70;;;;;;4983933;28;20442;-48
2023/07/06 09:15:03;;;;;;;1.27;1.10;;;22.20;47.80;;;;;;5005881;28;20470;-49
2023/07/06 09:17:32;;;;;;;1.50;0.90;;;22.20;47.70;;;;;;5004033;28;20459;-48
2023/07/06 09:20:03;;;;;;;2.33;1.20;;;22.20;47.60;;;;;;4992523;28;21037;-49
2023/07/06 09:22:33;;;;;;;1.47;0.80;;;22.20;47.70;;;;;;4987675;28;20549;-49
2023/07/06 09:25:05;;;;;;;1.57;1.10;;;22.20;47.80;;;;;;5002099;28;20448;-48
2023/07/06 09:27:34;;;;;;;1.00;0.80;;;22.20;47.80;;;;;;4999763;28;20442;-48
2023/07/06 09:30:06;;;;;;;1.50;1.10;;;22.20;47.60;;;;;;5003186;28;20645;-48
2023/07/06 09:32:35;;;;;;;1.57;1.00;;;22.20;47.60;;;;;;4989865;28;20461;-49
2023/07/06 09:35:08;;;;;;;2.73;0.90;;;22.20;47.70;;;;;;4999666;28;22261;-48
2023/07/06 09:37:47;;;;;;;1.17;0.83;;;22.20;47.60;;;;;;5000907;28;20451;-49
2023/07/06 09:40:15;;;;;;;1.63;0.90;;;22.20;47.60;;;;;;4990225;28;20478;-48
2023/07/06 09:42:44;;;;;;;1.30;0.97;;;22.20;47.50;;;;;;5009548;28;20451;-48
2023/07/06 09:45:24;;;;;;;1.47;0.90;;;22.20;47.50;;;;;;4988041;28;20483;-49
2023/07/06 09:47:56;;;;;;;1.67;1.00;;;22.20;47.50;;;;;;5004346;28;20450;-49
2023/07/06 09:50:35;;;;;;;1.60;0.93;;;22.20;47.50;;;;;;4985834;28;20470;-49
2023/07/06 09:53:11;;;;;;;1.10;0.77;;;22.20;47.60;;;;;;4986370;28;20546;-49
2023/07/06 09:55:39;;;;;;;1.23;1.00;;;22.20;47.60;;;;;;5009448;28;20459;-48
2023/07/06 09:58:19;;;;;;;1.70;0.90;;;22.20;47.50;;;;;;5007938;28;20831;-52
2023/07/06 10:00:52;;;;;;;1.20;0.97;;;22.20;47.50;;;;;;4995603;28;20489;-49
2023/07/06 10:03:46;;;;;;;1.63;1.07;;;22.20;47.50;;;;;;4986362;28;21046;-48
2023/07/06 10:06:29;;;;;;;1.47;1.00;;;22.20;47.40;;;;;;5008062;28;20470;-49
2023/07/06 10:09:08;;;;;;;1.53;1.07;;;22.20;47.40;;;;;;5000654;28;20597;-49
2023/07/06 10:11:49;;;;;;;1.87;1.10;;;22.20;47.50;;;;;;4990592;28;20486;-48
2023/07/06 10:14:25;;;;;;;1.47;1.03;;;22.20;47.50;;;;;;4990956;28;20538;-48
2023/07/06 10:17:08;;;;;;;1.93;0.63;;;22.20;47.50;;;;;;4990515;28;20446;-49
2023/07/06 10:19:46;;;;;;;1.27;0.80;;;22.20;47.40;;;;;;4986117;28;20474;-48
2023/07/06 10:22:23;;;;;;;1.37;0.90;;;22.20;47.50;;;;;;4989911;28;20438;-48
2023/07/06 10:25:01;;;;;;;1.53;0.90;;;22.20;47.50;;;;;;4992007;28;20898;-49
2023/07/06 10:27:34;;;;;;;1.27;0.80;;;22.20;47.20;;;;;;5003308;28;20524;-48
2023/07/06 10:30:08;;;;;;;1.10;0.90;;;22.20;47.30;;;;;;5007501;28;20985;-49
2023/07/06 10:32:41;;;;;;;1.23;0.80;;;22.20;47.20;;;;;;4990250;28;21112;-49
2023/07/06 10:35:18;;;;;;;2.40;1.00;;;22.20;47.30;;;;;;5007536;28;20503;-49
2023/07/06 10:37:48;;;;;;;1.03;0.83;;;22.20;47.40;;;;;;4986658;28;20472;-50
2023/07/06 10:40:24;;;;;;;1.60;1.03;;;22.20;47.10;;;;;;5009426;28;20482;-49
2023/07/06 10:43:21;;;;;;;2.00;1.00;;;22.20;47.20;;;;;;4993552;28;20446;-48
2023/07/06 10:45:51;;;;;;;1.27;1.00;;;22.20;47.10;;;;;;5006607;28;20847;-48
2023/07/06 10:48:38;;;;;;;0.97;0.80;;;22.20;47.30;;;;;;4991405;28;20831;-48
2023/07/06 10:51:22;;;;;;;1.07;0.83;;;22.30;47.10;;;;;;4990751;28;20845;-48
2023/07/06 10:54:06;;;;;;;1.87;1.10;;;22.20;47.20;;;;;;4982608;28;20450;-49
2023/07/06 10:56:47;;;;;;;1.07;0.70;;;22.30;47.30;;;;;;5000292;28;20968;-49
2023/07/06 10:59:39;;;;;;;1.60;1.00;;;22.30;47.30;;;;;;4984124;28;20451;-48
2023/07/06 11:02:40;;;;;;;1.10;0.80;;;22.30;47.30;;;;;;5001548;28;20462;-48
2023/07/06 11:05:28;;;;;;;0.93;0.60;;;22.30;47.30;;;;;;4997963;28;20501;-48
2023/07/06 11:08:16;;;;;;;1.97;0.60;;;22.30;47.10;;;;;;4990732;28;20874;-48
2023/07/06 11:10:58;;;;;;;1.37;0.80;;;22.30;47.20;;;;;;5003037;28;20479;-48
2023/07/06 11:13:52;;;;;;;1.30;0.80;;;22.30;47.30;;;;;;4992535;28;20445;-48
2023/07/06 11:16:49;;;;;;;1.20;0.87;;;22.30;48.50;;;;;;5000619;28;20473;-48
2023/07/06 11:19:42;;;;;;;1.17;1.03;;;22.30;47.00;;;;;;5005467;28;20446;-49
2023/07/06 11:22:33;;;;;;;2.13;1.00;;;22.30;47.30;;;;;;4985528;28;20957;-49
2023/07/06 11:25:22;;;;;;;2.80;0.93;;;22.30;47.20;;;;;;4987832;28;20490;-49
2023/07/06 11:28:14;;;;;;;2.07;0.90;;;22.30;47.20;;;;;;5006655;28;20446;-48
2023/07/06 11:31:05;;;;;;;2.00;0.93;;;22.30;47.20;;;;;;4970822;28;20486;-48
2023/07/06 11:34:06;;;;;;;1.30;0.73;;;22.30;47.00;;;;;;4985774;28;20835;-47
2023/07/06 11:36:42;;;;;;;1.00;0.90;;;22.30;47.10;;;;;;4984743;28;20588;-48
2023/07/06 11:39:22;;;;;;;2.00;0.80;;;22.30;46.80;;;;;;4981924;28;20984;-48
2023/07/06 11:41:53;;;;;;;1.00;0.80;;;22.40;46.90;;;;;;5003832;28;20612;-48
2023/07/06 11:44:35;;;;;;;1.63;1.00;;;22.40;47.10;;;;;;5003636;28;20494;-48
2023/07/06 11:47:33;;;;;;;1.80;1.37;;;22.40;47.20;;;;;;5003644;28;20454;-49
2023/07/06 11:50:08;;;;;;;2.10;0.93;;;22.40;47.20;;;;;;5006842;28;20572;-48
2023/07/06 11:52:39;;;;;;;1.40;1.00;;;22.40;47.20;;;;;;5006591;28;20450;-48
2023/07/06 11:55:28;;;;;;;1.27;0.73;;;22.40;46.70;;;;;;5003762;28;20454;-47
2023/07/06 11:58:07;;;;;;;1.23;0.90;;;22.40;47.00;;;;;;4989069;28;20516;-48
2023/07/06 12:03:26;;;;;;;1.10;1.00;;;22.40;46.60;;;;;;4997356;28;20505;-48
2023/07/06 12:05:56;;;;;;;1.60;1.03;;;22.40;47.00;;;;;;4988443;28;20478;-49
2023/07/06 12:08:30;;;;;;;1.20;0.90;;;22.40;47.10;;;;;;4997992;28;20486;-49
2023/07/06 12:11:01;;;;;;;1.40;1.20;;;22.40;47.30;;;;;;5005269;28;20479;-48
2023/07/06 12:13:34;;;;;;;1.30;0.83;;;22.40;47.30;;;;;;5005207;28;20460;-48
2023/07/06 12:16:13;;;;;;;1.17;0.83;;;22.40;47.30;;;;;;4986766;28;20486;-48
2023/07/06 12:18:46;;;;;;;1.30;0.73;;;22.50;47.50;;;;;;4989960;28;20456;-48
2023/07/06 12:21:23;;;;;;;3.23;0.90;;;22.40;47.50;;;;;;5002901;28;20494;-48
2023/07/06 12:23:52;;;;;;;1.30;0.90;;;22.40;47.30;;;;;;5003146;28;20465;-50
2023/07/06 12:26:21;;;;;;;1.10;0.77;;;22.50;47.40;;;;;;4988661;28;20474;-50
2023/07/06 12:28:50;;;;;;;1.97;1.20;;;22.50;47.20;;;;;;5005004;28;20484;-48
2023/07/06 12:31:23;;;;;;;1.07;0.63;;;22.50;47.30;;;;;;4987480;28;20479;-49
2023/07/06 12:33:55;;;;;;;1.23;0.77;;;22.50;47.40;;;;;;4988738;28;20447;-48
2023/07/06 12:36:28;;;;;;;1.33;0.80;;;22.50;47.40;;;;;;4999853;28;21068;-48
2023/07/06 12:39:00;;;;;;;3.23;1.10;;;22.50;47.10;;;;;;5000568;28;20829;-48
2023/07/06 12:41:34;;;;;;;1.10;0.77;;;22.50;47.10;;;;;;4990270;28;20485;-48
2023/07/06 12:44:05;;;;;;;1.50;1.07;;;22.50;46.50;;;;;;5001857;28;20463;-48
2023/07/06 12:46:35;;;;;;;1.47;1.27;;;22.50;46.70;;;;;;4988537;28;20485;-48
2023/07/06 12:49:20;;;;;;;1.13;0.70;;;22.60;46.90;;;;;;5001696;28;20511;-47
2023/07/06 12:51:54;;;;;;;1.43;0.90;;;22.60;47.00;;;;;;4989297;28;20498;-49
2023/07/06 12:54:24;;;;;;;1.30;0.87;;;22.60;47.00;;;;;;5001915;28;20453;-49
2023/07/06 12:56:58;;;;;;;1.97;1.13;;;22.60;47.20;;;;;;5005470;28;20517;-49
2023/07/06 12:59:33;;;;;;;1.20;1.00;;;22.60;47.10;;;;;;4995282;28;20440;-48
2023/07/06 13:02:16;;;;;;;1.40;0.77;;;22.60;47.20;;;;;;4999151;28;20448;-48
2023/07/06 13:04:48;;;;;;;2.30;1.30;;;22.60;47.00;;;;;;5000991;28;20519;-49
2023/07/06 13:07:18;;;;;;;1.47;1.03;;;22.60;47.00;;;;;;4999502;28;20896;-50
2023/07/06 13:09:48;;;;;;;2.13;1.13;;;22.60;47.20;;;;;;4985645;28;20481;-50
2023/07/06 13:12:21;;;;;;;1.60;1.00;;;22.60;47.00;;;;;;5005071;28;20443;-50
2023/07/06 13:14:50;;;;;;;1.83;1.10;;;22.60;47.00;;;;;;5004143;28;20436;-49
2023/07/06 13:17:25;;;;;;;1.37;0.87;;;22.60;47.10;;;;;;4992291;28;20435;-49
2023/07/06 13:19:57;;;;;;;1.97;0.90;;;22.60;46.80;;;;;;4991386;28;20472;-49